Time;durP1;ratioP1;P1;durP2;ratioP2;P2;SDS_P1;SDS_P2;PMS_P1;PMS_P2;Temp;Humidity;BMP_temperature;BMP_pressure;BME280_temperature;BME280_humidity;BME280_pressure;Samples;Min_cycle;Max_cycle;Signal;HPM_P1;HPM_P2
2023/01/01 00:00:43;;;;;;;77.55;22.80;;;;;;;13.78;100.00;98160.88;5026750;28;20048;-54
2023/01/01 00:03:09;;;;;;;104.45;31.63;;;;;;;13.54;100.00;98146.41;5031324;28;20033;-53
2023/01/01 00:05:37;;;;;;;109.85;30.92;;;;;;;13.64;100.00;98155.88;5028403;28;20025;-54
2023/01/01 00:08:03;;;;;;;127.25;37.63;;;;;;;13.52;100.00;98156.00;5030370;28;20041;-55
2023/01/01 00:10:29;;;;;;;128.48;38.40;;;;;;;13.38;100.00;98171.81;5027436;28;20041;-56
2023/01/01 00:12:58;;;;;;;113.32;31.70;;;;;;;13.41;100.00;98167.41;5028902;28;20045;-54
2023/01/01 00:15:26;;;;;;;98.40;30.90;;;;;;;13.54;100.00;98165.56;5027925;28;20479;-53
2023/01/01 00:17:52;;;;;;;106.10;31.00;;;;;;;13.46;100.00;98169.09;5027305;28;20072;-54
2023/01/01 00:20:17;;;;;;;113.55;30.98;;;;;;;13.51;100.00;98178.66;5026502;28;20213;-55
2023/01/01 00:22:42;;;;;;;130.02;33.53;;;;;;;13.46;100.00;98180.44;5027987;28;20025;-55
2023/01/01 00:25:12;;;;;;;123.18;31.95;;;;;;;13.46;100.00;98169.09;5031913;28;20114;-56
2023/01/01 00:27:38;;;;;;;134.43;31.98;;;;;;;13.54;100.00;98165.56;5031434;28;20160;-53
2023/01/01 00:30:04;;;;;;;123.70;31.70;;;;;;;13.53;100.00;98171.69;5026189;28;20013;-53
2023/01/01 00:32:29;;;;;;;110.13;32.30;;;;;;;13.47;100.00;98169.09;5026765;28;20761;-54
2023/01/01 00:34:55;;;;;;;110.60;30.23;;;;;;;13.40;100.00;98170.91;5029032;28;20033;-55
2023/01/01 00:37:20;;;;;;;105.65;30.90;;;;;;;13.34;100.00;98171.00;5031111;28;20049;-57
2023/01/01 00:39:45;;;;;;;155.38;34.63;;;;;;;13.25;100.00;98169.34;5029349;28;20041;-56
2023/01/01 00:42:11;;;;;;;130.45;33.08;;;;;;;13.22;100.00;98168.53;5027778;28;20045;-54
2023/01/01 00:44:36;;;;;;;107.40;30.17;;;;;;;13.09;100.00;98176.50;5028193;28;20033;-54
2023/01/01 00:47:01;;;;;;;130.73;33.28;;;;;;;12.98;100.00;98173.13;5028652;28;20464;-54
2023/01/01 00:49:27;;;;;;;116.53;32.78;;;;;;;13.03;100.00;98163.50;5029215;28;20079;-53
2023/01/01 00:51:53;;;;;;;125.63;33.10;;;;;;;13.13;100.00;98164.25;5029085;28;20560;-52
2023/01/01 00:54:18;;;;;;;108.05;33.10;;;;;;;13.11;100.00;98166.03;5028535;28;20059;-54
2023/01/01 00:56:44;;;;;;;140.35;32.10;;;;;;;13.07;100.00;98159.13;5028970;28;20132;-54
2023/01/01 00:59:09;;;;;;;124.65;29.77;;;;;;;13.07;100.00;98162.56;5028464;28;20063;-56
2023/01/01 01:01:34;;;;;;;131.85;32.35;;;;;;;13.05;100.00;98159.13;5029483;28;20038;-54
2023/01/01 01:04:04;;;;;;;131.93;33.80;;;;;;;12.83;100.00;98161.06;5027818;28;20496;-55
2023/01/01 01:06:29;;;;;;;106.88;34.28;;;;;;;12.63;100.00;98156.94;5029946;28;20052;-53
2023/01/01 01:08:54;;;;;;;122.88;34.22;;;;;;;12.81;100.00;98155.03;5032546;28;20041;-55
2023/01/01 01:11:23;;;;;;;138.80;37.00;;;;;;;12.74;100.00;98157.69;5025229;28;20040;-55
2023/01/01 01:13:51;;;;;;;121.45;31.75;;;;;;;12.59;100.00;98150.00;5025157;28;20089;-55
2023/01/01 01:16:22;;;;;;;143.55;38.55;;;;;;;12.42;100.00;98151.00;5030402;28;20063;-55
2023/01/01 01:18:53;;;;;;;110.70;37.38;;;;;;;12.56;100.00;98147.41;5028890;28;20505;-56
2023/01/01 01:21:20;;;;;;;133.93;37.47;;;;;;;12.65;100.00;98149.09;5029959;28;20059;-56
2023/01/01 01:23:47;;;;;;;113.53;37.45;;;;;;;12.74;100.00;98155.06;5031640;28;20029;-54
2023/01/01 01:26:16;;;;;;;142.93;37.50;;;;;;;12.60;100.00;98152.59;5032667;28;20037;-54
2023/01/01 01:28:42;;;;;;;128.32;36.40;;;;;;;12.63;100.00;98144.72;5029856;28;20032;-55
2023/01/01 01:31:08;;;;;;;149.02;37.05;;;;;;;12.77;100.00;98154.19;5027794;28;20490;-55
2023/01/01 01:33:34;;;;;;;136.93;37.58;;;;;;;12.77;100.00;98154.19;5030881;28;20029;-55
2023/01/01 01:36:01;;;;;;;142.77;36.50;;;;;;;12.73;100.00;98157.72;5029998;28;20669;-56
2023/01/01 01:38:26;;;;;;;157.88;36.22;;;;;;;12.80;100.00;98158.53;5030683;28;20047;-55
2023/01/01 01:40:52;;;;;;;138.95;36.75;;;;;;;12.70;100.00;98157.75;5028594;28;20037;-55
2023/01/01 01:43:31;;;;;;;135.23;35.17;;;;;;;12.75;100.00;98169.88;5026992;28;20576;-55
2023/01/01 01:46:07;;;;;;;109.72;35.25;;;;;;;12.77;100.00;98159.41;5028471;28;20087;-55
2023/01/01 01:48:38;;;;;;;127.18;36.78;;;;;;;12.52;100.00;98162.25;5030190;28;20096;-55
2023/01/01 01:51:04;;;;;;;135.75;36.88;;;;;;;12.58;100.00;98159.56;5024978;28;20075;-55
2023/01/01 01:53:32;;;;;;;145.05;37.25;;;;;;;12.72;100.00;98161.19;5030776;28;20033;-55
2023/01/01 01:56:05;;;;;;;127.18;36.08;;;;;;;12.66;100.00;98167.31;5029773;28;20040;-55
2023/01/01 01:58:31;;;;;;;129.57;34.35;;;;;;;12.49;100.00;98176.19;5027408;28;20036;-55
2023/01/01 02:00:58;;;;;;;116.90;32.72;;;;;;;12.22;100.00;98172.03;5029272;28;20044;-55
2023/01/01 02:03:31;;;;;;;110.88;34.75;;;;;;;12.17;100.00;98168.59;5031796;28;20620;-55
2023/01/01 02:05:57;;;;;;;121.35;36.63;;;;;;;12.29;100.00;98167.66;5030567;28;20505;-56
2023/01/01 02:08:23;;;;;;;126.28;37.53;;;;;;;12.47;100.00;98169.25;5029841;28;20047;-55
2023/01/01 02:10:49;;;;;;;134.38;41.17;;;;;;;12.48;100.00;98174.44;5027609;28;20049;-55
2023/01/01 02:13:14;;;;;;;135.15;43.03;;;;;;;12.01;100.00;98158.22;5029072;28;20021;-55
2023/01/01 02:15:47;;;;;;;124.65;33.15;;;;;;;12.11;100.00;98152.09;5028402;28;20044;-55
2023/01/01 02:18:18;;;;;;;;;;;;;;;12.24;100.00;98152.88;5030929;28;20572;-56
2023/01/01 02:21:02;;;;;;;158.07;39.50;;;;;;;11.78;100.00;98163.56;5027004;28;19927;-55
2023/01/01 02:23:30;;;;;;;129.48;38.28;;;;;;;11.83;100.00;98151.38;5028643;28;20021;-55
2023/01/01 02:26:20;;;;;;;138.60;32.45;;;;;;;11.77;100.00;98147.06;5029093;28;20523;-56
2023/01/01 02:29:03;;;;;;;151.32;37.90;;;;;;;11.87;100.00;98147.03;5028188;28;20041;-54
2023/01/01 02:31:36;;;;;;;131.20;37.67;;;;;;;11.88;100.00;98152.22;5028776;28;20037;-57
2023/01/01 02:34:03;;;;;;;;;;;;;;;11.85;100.00;98166.13;5028568;28;20064;-54
2023/01/01 02:36:32;;;;;;;118.53;37.47;;;;;;;11.62;100.00;98162.78;5031565;28;19939;-55
2023/01/01 02:39:00;;;;;;;140.75;37.78;;;;;;;11.48;100.00;98158.53;5030379;28;20173;-54
2023/01/01 02:41:33;;;;;;;112.18;35.17;;;;;;;11.84;100.00;98148.78;5025767;28;20037;-55
2023/01/01 02:43:59;;;;;;;174.13;41.67;;;;;;;11.88;100.00;98152.22;5028201;28;20029;-54
2023/01/01 02:46:30;;;;;;;143.60;37.72;;;;;;;11.85;100.00;98150.50;5029216;28;20037;-54
2023/01/01 02:48:55;;;;;;;151.48;38.80;;;;;;;11.50;100.00;98150.72;5028977;28;20080;-55
2023/01/01 02:51:42;;;;;;;128.13;36.53;;;;;;;11.60;100.00;98147.16;5028360;28;20060;-56
2023/01/01 02:54:22;;;;;;;133.45;34.38;;;;;;;11.88;100.00;98144.41;5026372;28;20025;-56
2023/01/01 02:57:00;;;;;;;106.70;32.30;;;;;;;11.98;100.00;98143.47;5028054;28;20068;-55
2023/01/01 03:02:31;;;;;;;119.22;35.33;;;;;;;11.33;100.00;98138.63;5028395;28;20048;-56
2023/01/01 03:05:14;;;;;;;137.13;37.08;;;;;;;11.44;100.00;98141.19;5030686;28;20033;-56
2023/01/01 03:07:52;;;;;;;124.28;34.03;;;;;;;11.59;100.00;98135.88;5029405;28;20079;-55
2023/01/01 03:10:31;;;;;;;150.88;35.47;;;;;;;11.60;100.00;98147.16;5028397;28;20024;-56
2023/01/01 03:13:02;;;;;;;101.82;32.92;;;;;;;11.62;100.00;98144.56;5022489;28;20037;-53
2023/01/01 03:15:27;;;;;;;126.07;34.77;;;;;;;11.74;100.00;98154.91;5026245;28;20033;-54
2023/01/01 03:18:09;;;;;;;115.38;31.60;;;;;;;11.85;100.00;98142.69;5026636;28;20070;-54
2023/01/01 03:20:41;;;;;;;123.18;37.05;;;;;;;11.93;100.00;98145.25;5026787;28;20513;-56
2023/01/01 03:23:13;;;;;;;100.15;33.92;;;;;;;11.84;100.00;98146.16;5025578;28;20036;-58
2023/01/01 03:25:47;;;;;;;101.20;29.30;;;;;;;11.90;100.00;98152.22;5029351;28;20047;-55
2023/01/01 03:28:21;;;;;;;118.72;30.38;;;;;;;11.74;100.00;98160.13;5027339;28;20025;-56
2023/01/01 03:30:50;;;;;;;121.97;28.92;;;;;;;11.82;100.00;98162.69;5025055;28;20041;-55
2023/01/01 03:33:28;;;;;;;91.70;20.95;;;;;;;11.82;100.00;98158.34;5028012;28;20021;-55
2023/01/01 03:36:03;;;;;;;111.70;26.17;;;;;;;11.67;100.00;98161.03;5036283;28;20508;-54
2023/01/01 03:38:28;;;;;;;138.50;32.80;;;;;;;11.63;100.00;98170.59;5030482;28;20025;-55
2023/01/01 03:41:02;;;;;;;132.27;29.63;;;;;;;11.57;100.00;98168.03;5027761;28;20098;-54
2023/01/01 03:43:49;;;;;;;102.70;28.98;;;;;;;11.49;100.00;98181.09;5030697;28;20052;-55
2023/01/01 03:46:20;;;;;;;132.73;36.13;;;;;;;11.21;100.00;98170.75;5025996;28;20047;-55
2023/01/01 03:48:59;;;;;;;127.07;32.38;;;;;;;11.25;100.00;98180.28;5027775;28;20027;-56
2023/01/01 03:51:45;;;;;;;86.43;24.30;;;;;;;11.35;100.00;98180.28;5027980;28;20039;-55
2023/01/01 03:54:44;;;;;;;72.68;16.13;;;;;;;11.48;100.00;98181.97;5030758;28;20034;-55
2023/01/01 03:57:13;;;;;;;84.00;21.40;;;;;;;11.42;100.00;98182.84;5031568;28;20431;-54
2023/01/01 03:59:50;;;;;;;130.90;26.17;;;;;;;11.36;100.00;98184.59;5050062;28;20028;-54
2023/01/01 04:02:20;;;;;;;87.07;19.92;;;;;;;11.35;100.00;98188.09;5030621;28;20044;-56
2023/01/01 04:04:48;;;;;;;84.72;16.00;;;;;;;11.48;100.00;98184.56;5030375;28;20489;-55
2023/01/01 04:07:13;;;;;;;73.22;17.65;;;;;;;11.31;100.00;98176.78;5030254;28;20700;-55
2023/01/01 04:09:44;;;;;;;87.70;15.68;;;;;;;11.48;100.00;98175.88;5029123;28;20021;-55
2023/01/01 04:12:09;;;;;;;76.53;14.25;;;;;;;11.58;100.00;98174.97;5028151;28;20495;-55
2023/01/01 04:14:40;;;;;;;72.43;17.65;;;;;;;11.26;100.00;98184.66;5029535;28;20091;-55
2023/01/01 04:17:08;;;;;;;65.40;15.90;;;;;;;11.04;100.00;98187.31;5031170;28;20726;-55
2023/01/01 04:19:33;;;;;;;63.67;11.40;;;;;;;11.30;100.00;98181.16;5028684;28;20398;-54
2023/01/01 04:22:00;;;;;;;79.00;12.48;;;;;;;11.59;100.00;98182.75;5032194;28;20516;-54
2023/01/01 04:24:25;;;;;;;56.20;10.13;;;;;;;11.72;100.00;98193.13;5028322;28;20025;-56
2023/01/01 04:26:52;;;;;;;54.95;9.05;;;;;;;11.89;100.00;98195.66;5032329;28;20099;-55
2023/01/01 04:29:18;;;;;;;67.80;9.85;;;;;;;12.08;100.00;98199.06;5031573;28;20021;-55
2023/01/01 04:31:44;;;;;;;64.53;8.13;;;;;;;12.14;100.00;98194.69;5027535;28;20029;-55
2023/01/01 04:34:09;;;;;;;78.38;9.70;;;;;;;12.29;100.00;98197.16;5027956;28;20048;-55
2023/01/01 04:36:35;;;;;;;51.08;8.15;;;;;;;12.32;100.00;98196.31;5029605;28;20163;-55
2023/01/01 04:39:01;;;;;;;56.05;9.27;;;;;;;12.18;100.00;98197.25;5030825;28;20534;-55
2023/01/01 04:41:26;;;;;;;62.65;9.55;;;;;;;12.14;100.00;98207.72;5024770;28;20055;-55
2023/01/01 04:43:52;;;;;;;66.80;12.07;;;;;;;12.11;100.00;98211.22;5030239;28;20033;-56
2023/01/01 04:46:20;;;;;;;76.80;12.63;;;;;;;12.07;100.00;98220.78;5030011;28;20044;-57
2023/01/01 04:48:45;;;;;;;68.35;13.00;;;;;;;12.04;100.00;98212.09;5031428;28;20053;-57
2023/01/01 04:51:13;;;;;;;76.78;10.95;;;;;;;11.93;100.00;98214.75;5024424;28;20120;-56
2023/01/01 04:53:38;;;;;;;61.72;11.77;;;;;;;11.93;100.00;98209.53;5032702;28;20535;-55
2023/01/01 04:56:16;;;;;;;50.13;9.13;;;;;;;11.88;100.00;98214.75;5033357;28;20041;-56
2023/01/01 04:58:42;;;;;;;54.38;9.80;;;;;;;11.89;100.00;98220.84;5034407;28;20135;-56
2023/01/01 05:01:14;;;;;;;64.20;10.52;;;;;;;11.79;100.00;98220.91;5032723;28;20045;-56
2023/01/01 05:03:39;;;;;;;66.05;12.02;;;;;;;11.80;100.00;98229.59;5033854;28;20222;-56
2023/01/01 05:06:08;;;;;;;53.30;12.07;;;;;;;11.72;100.00;98229.59;5034866;28;20037;-56
2023/01/01 05:08:36;;;;;;;50.67;11.20;;;;;;;11.67;100.00;98231.38;5033490;28;20200;-56
2023/01/01 05:11:12;;;;;;;54.05;11.27;;;;;;;11.61;100.00;98226.19;5038967;28;20041;-55
2023/01/01 05:13:41;;;;;;;55.17;10.73;;;;;;;11.59;100.00;98228.81;5034556;28;20033;-58
2023/01/01 05:16:10;;;;;;;56.88;10.20;;;;;;;11.59;100.00;98232.25;5032576;28;20410;-58
2023/01/01 05:18:36;;;;;;;80.40;13.02;;;;;;;11.61;100.00;98244.44;5033596;28;20402;-56
2023/01/01 05:21:06;;;;;;;55.25;9.93;;;;;;;11.57;100.00;98241.84;5030608;28;20511;-55
2023/01/01 05:23:32;;;;;;;68.45;12.90;;;;;;;11.53;100.00;98241.84;5034586;28;20029;-57
2023/01/01 05:25:58;;;;;;;66.47;10.80;;;;;;;11.39;100.00;98247.09;5033819;28;20064;-56
2023/01/01 05:28:23;;;;;;;73.53;13.30;;;;;;;11.39;100.00;98250.56;5034009;28;20039;-56
2023/01/01 05:30:50;;;;;;;64.32;13.82;;;;;;;11.09;100.00;98259.31;5031824;28;20049;-56
2023/01/01 05:33:15;;;;;;;76.78;16.60;;;;;;;10.74;100.00;98261.94;5054788;28;20552;-56
2023/01/01 05:35:40;;;;;;;86.72;16.20;;;;;;;10.74;100.00;98261.94;5032726;28;20052;-56
2023/01/01 05:38:06;;;;;;;61.35;15.63;;;;;;;10.32;100.00;98260.97;5034940;28;20025;-55
2023/01/01 05:40:31;;;;;;;71.43;15.20;;;;;;;10.40;100.00;98270.50;5031208;28;20255;-58
2023/01/01 05:42:56;;;;;;;72.70;14.25;;;;;;;10.50;100.00;98270.56;5032307;28;20021;-56
2023/01/01 05:45:22;;;;;;;64.82;12.63;;;;;;;10.45;100.00;98282.69;5034145;28;20260;-58
2023/01/01 05:47:48;;;;;;;80.65;14.90;;;;;;;10.52;100.00;98280.13;5034214;28;20053;-56
2023/01/01 05:50:13;;;;;;;55.00;12.93;;;;;;;10.51;100.00;98283.56;5030804;28;20025;-53
2023/01/01 05:52:38;;;;;;;67.57;13.80;;;;;;;10.72;100.00;98275.81;5033705;28;20017;-54
2023/01/01 05:55:04;;;;;;;52.60;12.65;;;;;;;10.75;100.00;98276.66;5032089;28;20031;-54
2023/01/01 05:57:30;;;;;;;75.07;13.88;;;;;;;10.65;100.00;98269.72;5034724;28;20028;-55
2023/01/01 05:59:55;;;;;;;74.30;13.13;;;;;;;10.55;100.00;98274.91;5033573;28;20025;-54
2023/01/01 06:02:21;;;;;;;75.35;15.45;;;;;;;10.27;100.00;98274.81;5031174;28;20037;-55
2023/01/01 06:04:46;;;;;;;68.32;14.23;;;;;;;10.54;100.00;98273.16;5033152;28;20171;-55
2023/01/01 06:07:11;;;;;;;60.38;13.40;;;;;;;10.49;100.00;98280.09;5034066;28;20134;-54
2023/01/01 06:09:37;;;;;;;101.85;14.85;;;;;;;10.51;100.00;98274.91;5033748;28;20032;-55
2023/01/01 06:12:02;;;;;;;76.63;14.32;;;;;;;10.36;100.00;98280.91;5031218;28;20033;-55
2023/01/01 06:14:28;;;;;;;52.15;11.98;;;;;;;10.41;100.00;98281.78;5034280;28;20048;-55
2023/01/01 06:16:53;;;;;;;70.82;13.35;;;;;;;10.39;100.00;98278.28;5033657;28;20072;-55
2023/01/01 06:19:18;;;;;;;74.97;14.82;;;;;;;10.01;100.00;98278.22;5033186;28;20037;-56
2023/01/01 06:21:44;;;;;;;68.40;12.63;;;;;;;10.11;100.00;98281.72;5033895;28;20641;-55
2023/01/01 06:24:09;;;;;;;86.30;15.73;;;;;;;10.09;100.00;98282.56;5031237;28;20082;-55
2023/01/01 06:26:34;;;;;;;69.75;14.20;;;;;;;10.14;100.00;98291.25;5033543;28;20071;-55
2023/01/01 06:29:01;;;;;;;54.83;13.32;;;;;;;10.11;100.00;98288.63;5034242;28;20028;-55
2023/01/01 06:31:28;;;;;;;67.63;12.80;;;;;;;10.09;100.00;98282.56;5029997;28;20056;-54
2023/01/01 06:33:54;;;;;;;69.30;13.55;;;;;;;10.11;100.00;98293.84;5032183;28;20026;-54
2023/01/01 06:36:22;;;;;;;77.05;14.55;;;;;;;9.90;100.00;98301.56;5034712;28;20042;-55
2023/01/01 06:38:50;;;;;;;73.32;14.10;;;;;;;9.59;100.00;98297.94;5032515;28;20056;-54
2023/01/01 06:41:18;;;;;;;101.25;15.30;;;;;;;9.81;100.00;98300.63;5032169;28;20565;-57
2023/01/01 06:43:44;;;;;;;79.10;13.85;;;;;;;9.74;100.00;98304.94;5032402;28;20044;-55
2023/01/01 06:46:24;;;;;;;76.15;13.50;;;;;;;10.02;100.00;98305.03;5030750;28;20040;-55
2023/01/01 06:48:53;;;;;;;81.22;14.75;;;;;;;9.80;100.00;98309.31;5033028;28;20526;-55
2023/01/01 06:51:21;;;;;;;94.93;16.25;;;;;;;9.68;100.00;98295.38;5030134;28;20052;-58
2023/01/01 06:53:48;;;;;;;76.22;16.13;;;;;;;9.35;100.00;98317.69;5031786;28;20029;-55
2023/01/01 06:56:14;;;;;;;71.30;18.23;;;;;;;8.80;100.00;98309.47;5032898;28;20206;-55
2023/01/01 06:58:40;;;;;;;66.32;13.80;;;;;;;9.12;100.00;98313.19;5032162;28;20037;-54
2023/01/01 07:01:10;;;;;;;80.93;13.82;;;;;;;9.36;100.00;98309.91;5031564;28;20114;-55
2023/01/01 07:03:36;;;;;;;91.82;16.52;;;;;;;9.87;100.00;98319.72;5033959;28;20032;-55
2023/01/01 07:06:01;;;;;;;63.72;14.32;;;;;;;10.03;100.00;98332.78;5033067;28;20049;-54
2023/01/01 07:08:27;;;;;;;85.97;14.27;;;;;;;9.80;100.00;98325.72;5036794;28;20037;-54
2023/01/01 07:10:52;;;;;;;85.75;14.95;;;;;;;9.64;100.00;98332.59;5031256;28;20143;-54
2023/01/01 07:13:18;;;;;;;71.95;13.98;;;;;;;9.46;100.00;98334.19;5031911;28;20029;-55
2023/01/01 07:15:43;;;;;;;85.82;10.52;;;;;;;9.73;100.00;98339.56;5034260;28;20037;-55
2023/01/01 07:18:09;;;;;;;66.72;12.95;;;;;;;9.89;100.00;98335.31;5030163;28;20044;-56
2023/01/01 07:20:34;;;;;;;72.70;14.20;;;;;;;9.50;100.00;98348.94;5029567;28;20048;-57
2023/01/01 07:23:01;;;;;;;69.68;13.27;;;;;;;9.84;100.00;98337.03;5035985;28;20025;-54
2023/01/01 07:25:27;;;;;;;71.95;13.50;;;;;;;9.96;100.00;98351.81;5033102;28;20506;-54
2023/01/01 07:27:52;;;;;;;94.90;15.88;;;;;;;9.54;100.00;98354.16;5032255;28;20549;-54
2023/01/01 07:30:18;;;;;;;82.13;15.30;;;;;;;9.80;100.00;98340.47;5027914;28;20171;-54
2023/01/01 07:32:43;;;;;;;87.07;14.15;;;;;;;10.33;100.00;98345.88;5030964;28;20025;-54
2023/01/01 07:35:08;;;;;;;59.25;12.90;;;;;;;10.08;100.00;98345.78;5030063;28;20060;-55
2023/01/01 07:37:34;;;;;;;55.70;11.63;;;;;;;10.58;100.00;98346.00;5032966;28;20021;-55
2023/01/01 07:39:59;;;;;;;86.65;14.00;;;;;;;10.72;100.00;98354.69;5033109;28;20140;-54
2023/01/01 07:42:25;;;;;;;71.05;12.00;;;;;;;11.11;100.00;98356.47;5030424;28;20085;-54
2023/01/01 07:44:50;;;;;;;84.22;12.60;;;;;;;11.29;100.00;98346.06;5030444;28;20021;-54
2023/01/01 07:47:26;;;;;;;75.03;12.07;;;;;;;11.50;100.00;98357.31;5030878;28;20144;-54
2023/01/01 07:49:52;;;;;;;76.20;12.57;;;;;;;11.43;100.00;98363.44;5030891;28;20765;-55
2023/01/01 07:52:17;;;;;;;57.60;10.45;;;;;;;11.76;100.00;98356.41;5031585;28;20037;-54
2023/01/01 07:54:43;;;;;;;62.97;10.68;;;;;;;11.92;100.00;98372.03;5032171;28;20036;-55
2023/01/01 07:57:09;;;;;;;72.15;10.43;;;;;;;12.41;100.00;98362.31;5030041;28;20036;-54
2023/01/01 07:59:35;;;;;;;66.50;10.68;;;;;;;12.46;100.00;98371.84;5028947;28;20109;-55
2023/01/01 08:02:01;;;;;;;67.85;11.23;;;;;;;12.47;100.00;98370.13;5029023;28;20036;-55
2023/01/01 08:04:26;;;;;;;68.53;11.18;;;;;;;12.28;100.00;98375.41;5032670;28;20039;-55
2023/01/01 08:06:52;;;;;;;71.88;11.60;;;;;;;12.71;100.00;98383.91;5028005;28;20045;-54
2023/01/01 08:09:18;;;;;;;81.38;12.00;;;;;;;12.66;100.00;98385.66;5030919;28;20021;-55
2023/01/01 08:11:44;;;;;;;59.90;11.45;;;;;;;13.26;100.00;98379.19;5027337;28;20115;-55
2023/01/01 08:14:09;;;;;;;67.97;11.00;;;;;;;13.55;100.00;98383.34;5029182;28;20033;-55
2023/01/01 08:16:35;;;;;;;52.85;10.57;;;;;;;13.45;100.00;98381.63;5029367;28;20491;-55
2023/01/01 08:19:00;;;;;;;46.92;9.88;;;;;;;13.76;100.00;98389.22;5029281;28;20039;-55
2023/01/01 08:21:25;;;;;;;74.85;11.52;;;;;;;13.88;100.00;98391.72;5027799;28;20135;-55
2023/01/01 08:23:51;;;;;;;55.60;9.50;;;;;;;13.67;100.00;98383.19;5030140;28;20026;-56
2023/01/01 08:26:25;;;;;;;64.85;10.98;;;;;;;13.55;100.00;98396.41;5036266;28;20116;-54
2023/01/01 08:28:50;;;;;;;48.20;10.10;;;;;;;14.01;100.00;98396.81;5030082;28;20588;-53
2023/01/01 08:31:15;;;;;;;73.25;11.57;;;;;;;13.89;100.00;98392.59;5032222;28;20041;-54
2023/01/01 08:33:41;;;;;;;57.33;9.63;;;;;;;14.47;100.00;98399.78;5030813;28;20064;-56
2023/01/01 08:36:10;;;;;;;63.03;9.55;;;;;;;13.97;100.00;98403.84;5029104;28;20048;-55
2023/01/01 08:38:35;;;;;;;67.97;10.10;;;;;;;14.39;100.00;98400.75;5029652;28;20108;-55
2023/01/01 08:41:00;;;;;;;53.72;8.63;;;;;;;14.44;100.00;98404.16;5028016;28;20422;-54
2023/01/01 08:43:26;;;;;;;63.25;9.63;;;;;;;14.18;100.00;98402.72;5028184;28;20037;-54
2023/01/01 08:45:51;;;;;;;57.22;9.15;;;;;;;14.80;100.00;98411.59;5027107;28;20041;-55
2023/01/01 08:48:16;;;;;;;59.03;9.13;;;;;;;15.14;100.00;98404.13;5027746;28;20025;-54
2023/01/01 08:50:42;;;;;;;68.47;10.02;;;;;;;15.27;100.00;98410.91;5027553;28;20065;-55
2023/01/01 08:53:07;;;;;;;44.47;8.57;;;;;;;15.45;100.00;98408.88;5030931;28;20115;-54
2023/01/01 08:55:33;;;;;;;56.30;9.02;;;;;;;15.09;100.00;98415.56;5031035;28;20086;-55
2023/01/01 08:57:58;;;;;;;56.13;9.23;;;;;;;15.42;100.00;98419.41;5030270;28;20029;-55
2023/01/01 09:00:23;;;;;;;60.47;9.25;;;;;;;15.44;100.00;98417.66;5026857;28;20130;-55
2023/01/01 09:02:49;;;;;;;70.95;9.82;;;;;;;15.48;100.00;98417.56;5028851;28;20032;-55
2023/01/01 09:05:14;;;;;;;56.28;8.40;;;;;;;15.53;98.48;98419.25;5047869;28;20110;-55
2023/01/01 09:07:39;;;;;;;56.85;8.50;;;;;;;15.80;100.00;98417.03;5030629;28;20537;-55
2023/01/01 09:10:05;;;;;;;52.22;8.13;;;;;;;15.85;100.00;98420.47;5028614;28;20099;-55
2023/01/01 09:12:31;;;;;;;42.28;7.00;;;;;;;15.36;98.36;98423.00;5028850;28;20404;-54
2023/01/01 09:14:56;;;;;;;62.05;9.18;;;;;;;15.73;100.00;98427.63;5029320;28;20410;-55
2023/01/01 09:17:21;;;;;;;63.42;8.48;;;;;;;15.50;98.46;98422.78;5028823;28;20459;-55
2023/01/01 09:19:47;;;;;;;99.05;11.23;;;;;;;15.68;98.83;98424.22;5028578;28;20141;-56
2023/01/01 09:22:12;;;;;;;56.78;8.95;;;;;;;15.68;99.42;98431.22;5027883;28;20115;-56
2023/01/01 09:24:38;;;;;;;55.80;9.02;;;;;;;15.97;100.00;98435.13;5030101;28;20305;-55
2023/01/01 09:27:03;;;;;;;66.68;10.00;;;;;;;15.98;100.00;98431.59;5024907;28;20037;-55
2023/01/01 09:29:29;;;;;;;58.10;8.70;;;;;;;15.77;100.00;98440.69;5028279;28;20186;-56
2023/01/01 09:31:54;;;;;;;55.53;8.60;;;;;;;16.01;100.00;98442.91;5026497;28;20044;-55
2023/01/01 09:34:19;;;;;;;65.63;9.10;;;;;;;16.38;100.00;98441.34;5029180;28;20125;-54
2023/01/01 09:36:45;;;;;;;59.42;9.18;;;;;;;16.42;100.00;98442.16;5026226;28;20447;-56
2023/01/01 09:39:13;;;;;;;67.75;10.18;;;;;;;16.11;96.94;98443.59;5029152;28;20094;-54
2023/01/01 09:41:47;;;;;;;49.65;8.25;;;;;;;16.25;98.82;98442.47;5030744;28;20049;-55
2023/01/01 09:45:09;;;;;;;73.38;9.73;;;;;;;16.43;100.00;98443.88;5032856;28;20465;-55
2023/01/01 09:47:53;;;;;;;52.00;8.82;;;;;;;16.73;99.03;98452.03;5009221;28;20519;-55
2023/01/01 09:50:26;;;;;;;64.93;10.35;;;;;;;16.70;99.98;98456.50;5008031;28;20034;-54
2023/01/01 09:53:12;;;;;;;72.72;10.52;;;;;;;16.84;99.17;98449.16;5024505;28;20065;-54
2023/01/01 09:55:47;;;;;;;52.80;8.30;;;;;;;17.04;97.52;98456.63;5030118;28;20220;-55
2023/01/01 09:58:14;;;;;;;61.13;9.15;;;;;;;17.38;99.42;98451.50;5031471;28;20095;-55
2023/01/01 10:00:43;;;;;;;46.22;8.05;;;;;;;17.55;97.33;98444.06;5031423;28;20037;-55
2023/01/01 10:03:26;;;;;;;54.25;8.20;;;;;;;17.93;97.48;98445.78;5031165;28;20036;-56
2023/01/01 10:05:58;;;;;;;53.72;9.25;;;;;;;18.29;95.58;98439.59;5031762;28;20040;-55
2023/01/01 10:08:46;;;;;;;69.93;9.77;;;;;;;17.97;60.42;98436.91;5030525;28;20083;-54
2023/01/01 10:11:16;;;;;;;58.13;9.27;;;;;;;17.74;59.09;98430.47;5029057;28;20486;-54
2023/01/01 10:13:44;;;;;;;59.55;9.40;;;;;;;17.88;60.82;98431.88;5032925;28;20030;-56
2023/01/01 10:16:09;;;;;;;54.65;8.32;;;;;;;18.16;57.92;98418.00;5031893;28;20464;-57
2023/01/01 10:18:37;;;;;;;54.55;8.18;;;;;;;17.65;56.91;98418.41;5028547;28;20478;-55
2023/01/01 10:21:21;;;;;;;55.10;7.72;;;;;;;17.35;58.16;98420.03;5031152;28;20041;-54
2023/01/01 10:23:53;;;;;;;67.28;8.73;;;;;;;17.63;58.79;98414.94;5029504;28;20412;-56
2023/01/01 10:26:21;;;;;;;49.85;7.32;;;;;;;17.60;56.82;98414.19;5026738;28;20029;-55
2023/01/01 10:29:05;;;;;;;65.03;8.23;;;;;;;17.86;58.50;98420.53;5031509;28;20056;-55
2023/01/01 10:31:38;;;;;;;44.08;6.88;;;;;;;17.73;58.39;98412.06;5029850;28;20446;-56
2023/01/01 10:34:21;;;;;;;45.00;6.72;;;;;;;17.88;57.00;98416.06;5031543;28;20029;-55
2023/01/01 10:36:50;;;;;;;59.42;7.95;;;;;;;17.79;57.96;98418.06;5031189;28;20143;-58
2023/01/01 10:39:16;;;;;;;61.10;7.80;;;;;;;17.76;58.60;98420.78;5030634;28;20603;-55
2023/01/01 10:41:43;;;;;;;54.25;7.35;;;;;;;17.73;57.86;98412.94;5028411;28;20832;-55
2023/01/01 10:44:10;;;;;;;43.92;7.32;;;;;;;17.69;58.27;98412.19;5030996;28;20090;-54
2023/01/01 10:46:43;;;;;;;45.08;6.60;;;;;;;17.67;59.23;98407.88;5034497;28;20041;-58
2023/01/01 10:49:12;;;;;;;45.75;6.60;;;;;;;17.55;58.32;98412.53;5031547;28;20388;-54
2023/01/01 10:51:44;;;;;;;43.85;6.28;;;;;;;17.77;57.09;98416.34;5027634;28;20033;-55
2023/01/01 10:54:34;;;;;;;51.05;6.80;;;;;;;17.79;56.07;98420.69;5028332;28;20123;-55
2023/01/01 10:57:26;;;;;;;59.85;7.55;;;;;;;17.70;56.13;98419.16;5028398;28;20119;-55
2023/01/01 10:59:52;;;;;;;70.60;8.80;;;;;;;17.63;55.98;98428.09;5027958;28;20042;-54
2023/01/01 11:02:23;;;;;;;66.72;9.30;;;;;;;17.95;56.75;98426.41;5030220;28;20041;-54
2023/01/01 11:04:50;;;;;;;57.08;8.25;;;;;;;17.92;55.77;98426.50;5030983;28;20021;-55
2023/01/01 11:07:32;;;;;;;47.05;7.68;;;;;;;18.22;59.83;98417.84;5029157;28;20080;-55
2023/01/01 11:10:03;;;;;;;71.65;9.27;;;;;;;18.73;63.54;98426.94;5029813;28;20483;-54
2023/01/01 11:12:34;;;;;;;53.47;7.63;;;;;;;18.77;59.71;98424.22;5028218;28;20337;-54
2023/01/01 11:14:59;;;;;;;65.07;8.70;;;;;;;18.82;57.33;98423.13;5029972;28;20063;-54
2023/01/01 11:17:28;;;;;;;36.78;6.95;;;;;;;19.08;53.49;98416.22;5029930;28;20570;-54
2023/01/01 11:19:56;;;;;;;82.20;10.57;;;;;;;18.61;56.26;98411.47;5009723;28;20056;-54
2023/01/01 11:22:42;;;;;;;69.90;10.10;;;;;;;18.63;54.70;98425.44;5024537;28;20033;-54